Latest Weather Observations for Nerriga

IDN60801

Issued at 3:05 pm EST Thursday 31 July 2014 (issued every 30 minutes, with the page automatically refreshed every 10 minutes)

About weather observations | Map of weather stations | Latest weather observations for NSW | Other Formats
Station Details ID: 069128 Name: NERRIGA AWS Lat: -35.11 Lon: 150.08 Height: 622.0 m
Data from the previous 72 hours. | See also: Recent months for locations in New South Wales
Date/Time
EST
Temp
°C
App
Temp
°C
Dew
Point
Rel
Hum
%
Delta-T
°C
Wind Press
QNH
hPa
Press
MSL
hPa
Rain
since 9 am
mm
Dir
 
Spd
km/h
Gust
km/h
Spd
kts
Gust
kts
31/03:00pm 16.9 4.4 1.0 34 7.3 NW 56 78 30 42 1004.5 1005.4 0.0
31/02:37pm 16.9 5.1 0.1 32 7.5 NW 52 91 28 49 1004.6 - 0.0
31/02:36pm 17.1 6.1 0.7 33 7.5 NW 48 69 26 37 1005.1 - 0.0
31/02:33pm 17.4 8.2 1.4 34 7.4 NW 39 48 21 26 1005.3 - 0.0
31/02:30pm 16.9 4.2 1.0 34 7.3 WNW 57 80 31 43 1005.2 - 0.0
31/02:01pm 16.8 2.9 0.5 33 7.3 NW 63 82 34 44 1005.6 - 0.0
31/02:00pm 16.7 2.4 0.4 33 7.3 NW 65 82 35 44 1005.5 1006.4 0.0
31/01:34pm 16.9 2.6 0.5 33 7.4 NW 65 85 35 46 1005.8 - 0.0
31/01:30pm 16.7 2.4 0.4 33 7.3 NW 65 83 35 45 1005.7 - 0.0
31/01:28pm 16.9 3.1 1.0 34 7.2 NW 63 80 34 43 1005.9 - 0.0
31/01:16pm 17.0 7.0 2.2 37 6.9 WNW 44 63 24 34 1006.6 - 0.0
31/01:15pm 16.8 6.3 1.7 36 7.0 WNW 46 63 25 34 1006.6 - 0.0
31/01:00pm 16.5 2.4 1.4 36 6.9 NW 65 93 35 50 1006.4 1007.3 0.0
31/12:30pm 16.3 1.5 2.0 38 6.6 NW 69 89 37 48 1007.1 - 0.0
31/12:29pm 16.3 1.5 2.0 38 6.6 NW 69 89 37 48 1007.4 - 0.0
31/12:27pm 16.3 0.9 1.6 37 6.7 NW 72 89 39 48 1007.0 - 0.0
31/12:01pm 16.3 5.5 2.0 38 6.6 WNW 48 70 26 38 1008.0 - 0.0
31/12:00pm 16.4 5.6 2.1 38 6.6 WNW 48 65 26 35 1008.1 1009.1 0.0
31/11:30am 15.6 3.4 2.4 41 6.1 NW 56 82 30 44 1008.7 - 0.0
31/11:04am 15.3 3.1 2.5 42 5.9 NW 56 76 30 41 1009.2 - 0.0
31/11:00am 15.4 3.6 2.6 42 6.0 NW 54 69 29 37 1009.4 1010.4 0.0
31/10:30am 14.7 3.6 2.3 43 5.7 NW 50 70 27 38 1010.2 - 0.0
31/10:13am 14.5 4.5 2.4 44 5.6 NW 44 80 24 43 1010.4 - 0.0
31/10:01am 14.5 5.3 3.3 47 5.2 NW 41 61 22 33 1010.8 - 0.0
31/10:00am 14.2 4.5 2.8 46 5.3 NW 43 61 23 33 1010.8 1011.8 0.0
31/09:30am 13.6 3.9 3.1 49 4.9 NW 43 65 23 35 1010.9 - 0.0
31/09:00am 12.6 2.4 3.0 52 4.4 NW 46 67 25 36 1010.8 1011.8 0.0
31/08:41am 12.0 2.2 3.3 55 4.0 NW 44 63 24 34 1010.9 - 0.0
31/08:30am 11.7 2.1 3.2 56 3.9 NW 43 57 23 31 1011.0 - 0.0
31/08:06am 11.0 3.3 3.3 59 3.5 NW 33 52 18 28 1011.2 - 0.0
31/08:00am 10.9 3.4 3.5 60 3.4 NW 32 46 17 25 1011.3 1012.3 0.0
31/07:49am 10.7 4.0 3.5 61 3.3 NW 28 46 15 25 1011.4 - 0.0
31/07:30am 10.1 4.1 3.6 64 3.0 NW 24 35 13 19 1011.7 - 0.0
31/07:00am 9.2 2.5 3.8 69 2.4 NW 28 37 15 20 1011.7 1012.7 0.0
31/06:30am 9.5 2.5 4.1 69 2.5 NW 30 39 16 21 1011.7 - 0.0
31/06:00am 9.4 3.2 4.4 71 2.3 NW 26 39 14 21 1012.1 1013.1 0.0
31/05:43am 9.7 2.8 4.7 71 2.3 NW 30 48 16 26 1012.2 - 0.0
31/05:30am 9.8 2.4 4.8 71 2.3 NW 33 50 18 27 1012.1 - 0.0
31/05:00am 9.5 2.7 5.1 74 2.1 NW 30 41 16 22 1012.3 1013.3 0.0
31/04:30am 9.8 3.0 5.2 73 2.2 NW 30 37 16 20 1012.4 - 0.0
31/04:00am 10.2 2.9 5.4 72 2.3 NW 33 41 18 22 1012.6 1013.6 0.0
31/03:30am 10.3 3.0 5.5 72 2.3 NW 33 44 18 24 1012.8 - 0.0
31/03:00am 10.6 2.6 5.8 72 2.3 NW 37 50 20 27 1012.8 1013.8 0.0
31/02:35am 10.8 3.6 6.0 72 2.3 NW 33 54 18 29 1012.9 - 0.0
31/02:30am 10.8 3.8 6.0 72 2.3 NW 32 41 17 22 1013.0 - 0.0
31/02:00am 10.6 4.5 6.4 75 2.0 NW 28 39 15 21 1013.8 1014.8 0.0
31/01:30am 10.2 5.2 6.5 78 1.8 NW 22 30 12 16 1014.2 - 0.0
31/01:00am 10.5 5.2 6.6 77 1.9 NW 24 33 13 18 1014.5 1015.5 0.0
31/12:30am 10.8 5.1 6.7 76 2.0 NW 26 35 14 19 1014.8 - 0.0
31/12:00am 10.7 6.2 6.8 77 1.9 NW 20 30 11 16 1015.4 1016.4 0.0
 
Date/Time
EST
Temp
°C
App
Temp
°C
Dew
Point
Rel
Hum
%
Delta-T
°C
Wind Press
QNH
hPa
Press
MSL
hPa
Rain
since 9 am
mm
Dir
 
Spd
km/h
Gust
km/h
Spd
kts
Gust
kts
30/11:30pm 10.1 7.2 6.6 79 1.7 NW 11 19 6 10 1015.8 - 0.0
30/11:00pm 10.9 6.7 7.4 79 1.7 NW 19 26 10 14 1015.9 1016.9 0.0
30/10:30pm 11.1 6.0 7.6 79 1.7 WNW 24 33 13 18 1015.9 - 0.0
30/10:00pm 11.5 6.1 7.8 78 1.9 WNW 26 35 14 19 1015.9 1016.9 0.0
30/09:30pm 11.1 5.7 8.0 81 1.6 WNW 26 35 14 19 1015.7 - 0.0
30/09:00pm 11.6 5.5 8.1 79 1.8 NW 30 41 16 22 1015.7 1016.7 0.0
30/08:30pm 11.8 6.8 8.1 78 1.9 NW 24 35 13 19 1015.8 - 0.0
30/08:00pm 12.3 7.3 8.2 76 2.1 NW 24 37 13 20 1015.9 1016.9 0.0
30/07:30pm 12.3 6.5 8.0 75 2.2 WNW 28 43 15 23 1015.8 - 0.0
30/07:00pm 12.5 7.1 7.8 73 2.4 WNW 26 39 14 21 1015.6 1016.6 0.0
30/06:30pm 12.3 6.9 7.8 74 2.3 NW 26 37 14 20 1015.6 - 0.0
30/06:12pm 12.4 6.5 7.5 72 2.5 WNW 28 48 15 26 1015.3 - 0.0
30/06:00pm 12.5 6.6 7.4 71 2.6 WNW 28 37 15 20 1015.3 1016.3 0.0
30/05:30pm 12.2 5.5 7.3 72 2.5 WNW 32 44 17 24 1015.3 - 0.0
30/05:00pm 12.5 5.6 7.4 71 2.6 WNW 33 54 18 29 1014.8 1015.9 0.0
30/04:35pm 12.9 4.6 7.6 70 2.7 WNW 41 63 22 34 1014.2 - 0.0
30/04:30pm 12.8 4.4 7.5 70 2.7 WNW 41 57 22 31 1013.8 - 0.0
30/04:04pm 13.2 5.1 7.2 67 3.0 WNW 39 59 21 32 1013.8 - 0.0
30/04:00pm 13.1 6.2 7.3 68 2.9 WNW 33 52 18 28 1013.9 1014.9 0.0
30/03:35pm 13.2 5.5 7.2 67 3.0 WNW 37 57 20 31 1014.1 - 0.0
30/03:30pm 13.2 6.3 7.2 67 3.0 NW 33 48 18 26 1014.2 - 0.0
30/03:00pm 13.5 5.0 7.1 65 3.2 WNW 41 61 22 33 1014.2 1015.2 0.0
30/02:36pm 14.2 4.7 6.8 61 3.7 WNW 46 69 25 37 1013.8 - 0.0
30/02:30pm 14.1 4.6 6.9 62 3.6 WNW 46 65 25 35 1014.2 - 0.0
30/02:02pm 13.9 4.8 6.7 62 3.6 WNW 44 65 24 35 1014.0 - 0.0
30/02:00pm 13.7 4.2 6.6 62 3.5 WNW 46 65 25 35 1014.1 1015.1 0.0
30/01:30pm 13.9 4.7 6.5 61 3.7 W 44 69 24 37 1014.2 - 0.0
30/01:00pm 13.6 5.4 6.7 63 3.4 WNW 39 59 21 32 1015.1 1016.2 0.0
30/12:30pm 13.8 6.1 6.9 63 3.5 W 37 48 20 26 1015.4 - 0.0
30/12:00pm 14.3 5.4 7.6 64 3.4 WNW 44 65 24 35 1015.4 1016.4 0.0
30/11:31am 14.4 6.2 8.1 66 3.3 WNW 41 61 22 33 1015.6 - 0.0
30/11:30am 13.9 5.2 7.7 66 3.2 WNW 43 61 23 33 1015.6 - 0.0
30/11:00am 13.3 4.4 7.7 69 2.8 WNW 44 67 24 36 1016.2 1017.3 0.0
30/10:43am 12.9 5.3 7.4 69 2.8 WNW 37 56 20 30 1016.3 - 0.0
30/10:30am 12.4 3.5 7.7 73 2.4 WNW 44 61 24 33 1016.4 - 0.0
30/10:00am 13.3 5.9 8.2 71 2.6 WNW 37 57 20 31 1016.5 1017.6 0.0
30/09:30am 11.9 4.0 7.8 76 2.1 WNW 39 57 21 31 1016.3 - 0.0
30/09:00am 10.9 2.6 7.6 80 1.6 WNW 41 59 22 32 1016.5 1017.6 0.0
30/08:54am 10.7 2.7 7.4 80 1.6 WNW 39 59 21 32 1016.3 - 0.0
30/08:30am 10.7 3.8 7.2 79 1.7 NW 33 48 18 26 1016.8 - 0.0
30/08:00am 10.7 3.7 7.0 78 1.8 NW 33 52 18 28 1017.0 1018.0 0.0
30/07:58am 10.6 3.8 6.9 78 1.8 NW 32 52 17 28 1016.8 - 0.0
30/07:30am 9.9 4.1 6.4 79 1.7 NW 26 35 14 19 1017.1 - 0.0
30/07:00am 9.9 3.4 6.4 79 1.7 NW 30 43 16 23 1016.6 1017.7 0.0
30/06:30am 9.8 2.3 6.2 78 1.7 NW 35 46 19 25 1016.1 - 0.0
30/06:00am 10.0 3.4 6.2 77 1.8 NNW 30 41 16 22 1015.7 1016.7 0.0
30/05:30am 9.9 5.2 5.9 76 1.9 NNW 20 28 11 15 1016.0 - 0.0
30/05:00am 9.9 5.3 5.7 75 2.0 N 19 26 10 14 1015.9 1016.9 0.0
30/04:30am 9.7 5.0 5.1 73 2.2 N 19 24 10 13 1015.7 - 0.0
30/04:00am 9.7 4.9 4.9 72 2.2 N 19 24 10 13 1015.7 1016.7 0.0
30/03:30am 9.7 4.8 4.3 69 2.5 N 19 24 10 13 1015.6 - 0.0
30/03:00am 9.7 4.8 3.9 67 2.6 N 19 26 10 14 1015.6 1016.6 0.0
30/02:30am 9.3 4.7 3.5 67 2.6 NNW 17 20 9 11 1015.4 - 0.0
30/02:00am 9.5 5.2 3.3 65 2.8 NNW 15 22 8 12 1015.0 1016.1 0.0
30/01:30am 10.8 5.6 3.4 60 3.4 NW 20 32 11 17 1014.9 - 0.0
30/01:00am 11.1 5.7 2.7 56 3.8 NW 20 33 11 18 1014.9 1016.0 0.0
30/12:30am 11.6 4.3 2.6 54 4.0 WNW 30 50 16 27 1014.4 - 0.0
30/12:22am 11.6 4.7 2.6 54 4.0 WNW 28 50 15 27 1014.4 - 0.0
30/12:00am 11.3 4.9 3.1 57 3.7 WNW 26 43 14 23 1014.4 1015.4 0.0
 
Date/Time
EST
Temp
°C
App
Temp
°C
Dew
Point
Rel
Hum
%
Delta-T
°C
Wind Press
QNH
hPa
Press
MSL
hPa
Rain
since 9 am
mm
Dir
 
Spd
km/h
Gust
km/h
Spd
kts
Gust
kts
29/11:48pm 11.5 4.4 3.3 57 3.7 WNW 30 50 16 27 1014.3 - 0.0
29/11:30pm 11.8 4.2 3.8 58 3.7 WNW 33 48 18 26 1014.2 - 0.0
29/11:00pm 12.1 4.2 4.1 58 3.7 WNW 35 50 19 27 1014.5 1015.5 0.0
29/10:30pm 12.4 4.8 4.1 57 3.9 WNW 33 48 18 26 1014.6 - 0.0
29/10:00pm 12.6 3.9 4.1 56 4.0 WNW 39 59 21 32 1013.9 1014.9 0.0
29/09:30pm 12.7 3.3 4.2 56 4.0 WNW 43 63 23 34 1013.4 - 0.0
29/09:08pm 12.2 4.7 4.4 59 3.7 WNW 33 54 18 29 1013.8 - 0.0
29/09:00pm 12.2 4.7 4.7 60 3.6 WNW 33 44 18 24 1013.9 1014.9 0.0
29/08:45pm 12.2 4.7 4.7 60 3.6 WNW 33 52 18 28 1013.8 - 0.0
29/08:30pm 12.0 4.5 4.7 61 3.5 WNW 33 50 18 27 1014.0 - 0.0
29/08:00pm 12.0 4.2 4.7 61 3.5 WNW 35 50 19 27 1013.9 1014.9 0.0
29/07:30pm 12.0 3.4 4.7 61 3.5 WNW 39 59 21 32 1013.7 - 0.0
29/07:00pm 12.2 4.0 4.7 60 3.6 WNW 37 57 20 31 1013.9 1014.9 0.0
29/06:37pm 12.3 3.7 4.8 60 3.6 WNW 39 59 21 32 1013.4 - 0.0
29/06:30pm 12.2 3.6 4.7 60 3.6 WNW 39 52 21 28 1013.4 - 0.0
29/06:00pm 12.5 2.2 4.7 59 3.7 WNW 48 69 26 37 1013.2 1014.2 0.0
29/05:41pm 12.6 3.2 4.6 58 3.8 WNW 43 61 23 33 1012.8 - 0.0
29/05:30pm 12.9 2.9 4.3 56 4.1 WNW 46 61 25 33 1012.6 - 0.0
29/05:16pm 12.9 4.6 4.3 56 4.1 WNW 37 57 20 31 1012.7 - 0.0
29/05:00pm 13.4 3.4 4.3 54 4.3 WNW 46 65 25 35 1012.6 1013.6 0.0
29/04:30pm 14.3 5.5 3.7 49 5.0 WNW 39 63 21 34 1012.5 - 0.0
29/04:00pm 14.9 3.5 2.8 44 5.6 WNW 52 78 28 42 1011.9 1012.8 0.0
29/03:30pm 15.3 3.9 3.1 44 5.7 WNW 52 74 28 40 1012.0 - 0.0
29/03:11pm 15.3 2.6 3.1 44 5.7 WNW 59 80 32 43 1012.1 - 0.0
29/03:05pm 15.3 2.6 2.8 43 5.8 WNW 59 74 32 40 1012.1 - 0.0
29/03:00pm 15.6 6.8 3.4 44 5.8 WNW 39 61 21 33 1012.3 1013.3 0.0
29/02:30pm 16.0 6.1 2.8 41 6.2 WNW 44 63 24 34 1012.3 - 0.0
29/02:00pm 15.8 5.8 2.2 40 6.3 WNW 44 67 24 36 1012.7 1013.7 0.0
29/01:30pm 16.1 6.2 1.8 38 6.6 WNW 43 67 23 36 1012.2 - 0.0
29/01:09pm 15.8 5.9 1.9 39 6.4 WNW 43 69 23 37 1012.6 - 0.0
29/01:00pm 16.2 6.5 2.6 40 6.4 WNW 43 57 23 31 1013.0 1014.0 0.0
29/12:35pm 15.8 6.7 1.9 39 6.4 WNW 39 57 21 31 1013.3 - 0.0
29/12:30pm 15.9 7.2 2.3 40 6.3 WNW 37 54 20 29 1013.6 - 0.0
29/12:00pm 15.6 8.2 1.7 39 6.3 W 30 50 16 27 1014.9 1016.0 0.0
29/11:51am 15.8 8.1 2.2 40 6.3 W 32 52 17 28 1015.1 - 0.0
29/11:30am 15.3 7.3 1.8 40 6.2 WNW 33 50 18 27 1014.3 - 0.0
29/11:09am 14.5 5.3 1.1 40 6.0 WNW 39 61 21 33 1014.2 - 0.0
29/11:00am 14.3 5.1 1.2 41 5.8 WNW 39 56 21 30 1014.6 1015.6 0.0
29/10:30am 13.7 4.9 1.4 43 5.5 WNW 37 56 20 30 1014.8 - 0.0
29/10:01am 12.9 5.0 1.0 44 5.2 NW 32 54 17 29 1014.8 - 0.0
29/10:00am 12.9 4.8 1.0 44 5.2 NW 33 52 18 28 1014.8 1015.9 0.0
29/09:30am 11.7 3.8 0.8 47 4.7 WNW 32 52 17 28 1015.4 - 0.0
29/09:00am 10.4 2.7 0.2 49 4.3 WNW 30 52 16 28 1015.6 1016.6 0.0
29/08:51am 10.3 2.6 0.1 49 4.3 NW 30 52 16 28 1015.3 - 0.0
29/08:30am 10.1 3.3 0.7 52 4.0 NW 26 43 14 23 1015.5 - 0.0
29/08:00am 9.4 3.9 0.3 53 3.8 NW 19 28 10 15 1015.8 1016.8 0.0
29/07:30am 8.7 3.6 0.7 57 3.4 NW 17 24 9 13 1015.9 - 0.0
29/07:00am 8.2 2.7 0.7 59 3.1 NW 19 28 10 15 1015.8 1016.8 0.0
29/06:30am 8.6 1.8 1.1 59 3.2 NW 26 33 14 18 1015.6 - 0.0
29/06:00am 8.4 2.4 1.3 61 3.0 NW 22 28 12 15 1015.5 1016.5 0.0
29/05:30am 8.4 2.9 1.6 62 2.9 NW 20 26 11 14 1015.6 - 0.0
29/05:00am 8.3 2.8 1.9 64 2.7 NW 20 26 11 14 1015.8 1016.8 0.0
29/04:30am 8.4 3.5 2.2 65 2.7 NNW 17 24 9 13 1016.0 - 0.0
29/04:00am 8.4 2.9 2.0 64 2.8 NW 20 28 11 15 1016.3 1017.4 0.0
29/03:30am 8.9 2.0 2.3 63 2.9 NW 28 37 15 20 1016.1 - 0.0
29/03:00am 9.3 1.7 2.6 63 3.0 WNW 32 46 17 25 1015.7 1016.7 0.0
29/02:30am 9.0 3.7 3.0 66 2.7 NW 20 35 11 19 1016.0 - 0.0
29/02:00am 8.1 3.4 3.2 71 2.2 NW 17 24 9 13 1016.2 1017.3 0.0
29/01:30am 8.3 4.4 3.2 70 2.3 NW 13 22 7 12 1016.6 - 0.0
29/01:00am 8.6 4.3 3.4 70 2.3 NW 15 20 8 11 1017.1 1018.1 0.0
29/12:30am 8.0 4.8 2.9 70 2.2 NW 9 19 5 10 1017.5 - 0.0
29/12:00am 8.1 4.1 3.0 70 2.2 NW 13 17 7 9 1017.5 1018.6 0.0
 
Date/Time
EST
Temp
°C
App
Temp
°C
Dew
Point
Rel
Hum
%
Delta-T
°C
Wind Press
QNH
hPa
Press
MSL
hPa
Rain
since 9 am
mm
Dir
 
Spd
km/h
Gust
km/h
Spd
kts
Gust
kts
28/11:30pm 8.4 5.3 3.5 71 2.2 NW 9 13 5 7 1017.6 - 0.0
28/11:00pm 8.4 5.7 3.8 73 2.1 NW 7 11 4 6 1017.9 1019.0 0.0
28/10:30pm 8.0 4.2 4.0 76 1.8 NW 13 20 7 11 1017.7 - 0.0
28/10:00pm 7.4 3.3 4.2 80 1.4 NW 15 19 8 10 1018.0 1019.1 0.0
28/09:30pm 7.6 5.1 4.6 81 1.4 NNW 7 9 4 5 1018.0 - 0.0
28/09:00pm 7.6 4.7 4.7 82 1.3 NW 9 13 5 7 1018.3 1019.4 0.0
28/08:30pm 7.8 4.1 4.4 79 1.5 NW 13 17 7 9 1018.3 - 0.0
28/08:00pm 7.8 4.1 4.2 78 1.6 NW 13 19 7 10 1018.5 1019.6 0.0
28/07:30pm 8.5 4.7 4.1 74 2.0 NW 13 20 7 11 1018.5 - 0.0
28/07:00pm 8.8 5.4 4.0 72 2.2 WNW 11 17 6 9 1018.3 1019.4 0.0
28/06:30pm 8.7 5.7 3.9 72 2.2 W 9 13 5 7 1018.4 - 0.0
28/06:00pm 9.3 5.5 3.9 69 2.4 W 13 17 7 9 1018.3 1019.4 0.0
28/05:30pm 10.0 4.8 3.7 65 2.9 W 20 28 11 15 1018.7 - 0.0
28/05:00pm 10.5 3.8 3.8 63 3.1 W 28 37 15 20 1018.2 1019.3 0.0
28/04:30pm 10.7 4.4 3.7 62 3.2 WNW 26 44 14 24 1018.0 - 0.0
28/04:00pm 10.9 5.0 3.7 61 3.3 WNW 24 37 13 20 1017.8 1018.9 0.0
28/03:51pm 11.0 4.2 3.3 59 3.5 WNW 28 50 15 27 1017.7 - 0.0
28/03:30pm 11.0 3.9 3.5 60 3.4 W 30 44 16 24 1017.8 - 0.0

Other Formats:

Comma delimited format used in spreadsheet applications
http://www.bom.gov.au/fwo/IDN60801/IDN60801.94943.axf

JavaScript Object Notation format (JSON) in row-major order
http://www.bom.gov.au/fwo/IDN60801/IDN60801.94943.json